createdAt,value
2022-08-30T00:01:31.733Z,96184.22
2022-08-30T00:04:00.706Z,96208.28
2022-08-30T00:06:30.615Z,96219.22
2022-08-30T00:08:59.772Z,96179.19
2022-08-30T00:11:29.366Z,96209.31
2022-08-30T00:13:58.058Z,96188.75
2022-08-30T00:16:26.895Z,96186.38
2022-08-30T00:18:57.724Z,96203.66
2022-08-30T00:21:27.068Z,96198.47
2022-08-30T00:23:55.020Z,96157.72
2022-08-30T00:26:22.804Z,96133.88
2022-08-30T00:28:50.558Z,96202.84
2022-08-30T00:31:18.461Z,96203.91
2022-08-30T00:33:48.165Z,96111.50
2022-08-30T00:36:17.650Z,96068.13
2022-08-30T00:38:45.345Z,96182.06
2022-08-30T00:41:13.083Z,96174.97
2022-08-30T00:43:40.859Z,96175.88
2022-08-30T00:46:10.331Z,96198.53
2022-08-30T00:48:41.673Z,96069.13
2022-08-30T00:51:12.077Z,96164.72
2022-08-30T00:53:45.658Z,96144.81
2022-08-30T00:56:14.422Z,96095.25
2022-08-30T00:58:46.471Z,96165.03
2022-08-30T01:01:14.921Z,96092.41
2022-08-30T01:03:44.357Z,96197.53
2022-08-30T01:06:12.717Z,96172.50
2022-08-30T01:08:41.847Z,96191.84
2022-08-30T01:11:12.003Z,96180.25
2022-08-30T01:13:40.685Z,96158.69
2022-08-30T01:16:09.448Z,96186.13
2022-08-30T01:18:38.326Z,96193.25
2022-08-30T01:21:16.911Z,96085.53
2022-08-30T01:23:48.239Z,96165.38
2022-08-30T01:26:17.570Z,96102.75
2022-08-30T01:28:54.677Z,96165.16
2022-08-30T01:31:22.649Z,96061.53
2022-08-30T01:33:51.009Z,96193.06
2022-08-30T01:36:22.230Z,96145.31
2022-08-30T01:38:54.266Z,96191.00
2022-08-30T01:41:24.392Z,96185.97
2022-08-30T01:43:54.189Z,96178.91
2022-08-30T01:46:24.310Z,96130.63
2022-08-30T01:48:54.265Z,96178.66
2022-08-30T01:51:24.183Z,96180.28
2022-08-30T01:53:54.038Z,96169.31
2022-08-30T01:56:21.929Z,96186.53
2022-08-30T01:58:50.884Z,96135.69
2022-08-30T02:01:21.642Z,96189.00
2022-08-30T02:03:50.000Z,96203.94
2022-08-30T02:06:20.215Z,96126.56
2022-08-30T02:08:48.634Z,96189.41
2022-08-30T02:11:18.020Z,96175.38
2022-08-30T02:13:47.143Z,96194.22
2022-08-30T02:16:17.417Z,96184.47
2022-08-30T02:18:45.648Z,96181.56
2022-08-30T02:21:14.528Z,96164.22
2022-08-30T02:23:43.121Z,96195.81
2022-08-30T02:26:12.844Z,96187.06
2022-08-30T02:28:42.841Z,96108.16
2022-08-30T02:31:19.557Z,96181.44
2022-08-30T02:33:50.879Z,96184.28
2022-08-30T02:36:20.647Z,96188.16
2022-08-30T02:38:48.372Z,96142.09
2022-08-30T02:41:16.134Z,96162.22
2022-08-30T02:43:45.269Z,96181.38
2022-08-30T02:46:13.193Z,96116.09
2022-08-30T02:48:41.084Z,96095.97
2022-08-30T02:51:11.726Z,96151.56
2022-08-30T02:53:40.127Z,96174.16
2022-08-30T02:56:08.880Z,96193.19
2022-08-30T02:58:37.615Z,96087.34
2022-08-30T03:01:07.122Z,96108.47
2022-08-30T03:03:35.228Z,96057.94
2022-08-30T03:06:03.538Z,96067.81
2022-08-30T03:08:31.536Z,96177.41
2022-08-30T03:10:59.788Z,96217.38
2022-08-30T03:13:27.676Z,96189.59
2022-08-30T03:15:55.431Z,96164.03
2022-08-30T03:18:25.448Z,96075.59
2022-08-30T03:20:54.056Z,96052.63
2022-08-30T03:23:22.286Z,96179.56
2022-08-30T03:25:50.079Z,96109.75
2022-08-30T03:28:18.741Z,96176.91
2022-08-30T03:30:47.718Z,96192.81
2022-08-30T03:33:15.706Z,96181.63
2022-08-30T03:35:45.170Z,96165.50
2022-08-30T03:38:12.996Z,96189.50
2022-08-30T03:40:41.769Z,96197.63
2022-08-30T03:43:09.879Z,96195.28
2022-08-30T03:45:37.812Z,96083.25
2022-08-30T03:48:05.878Z,96194.97
2022-08-30T03:50:35.284Z,96090.91
2022-08-30T03:53:04.513Z,96082.03
2022-08-30T03:55:32.598Z,96192.63
2022-08-30T03:58:00.287Z,96187.41
2022-08-30T04:00:28.145Z,96106.81
2022-08-30T04:02:55.830Z,96195.66
2022-08-30T04:05:23.485Z,96203.25
2022-08-30T04:07:51.904Z,96178.41
2022-08-30T04:10:21.983Z,96196.75
2022-08-30T04:12:50.223Z,96172.22
2022-08-30T04:15:19.703Z,96209.13
2022-08-30T04:17:48.315Z,96171.03
2022-08-30T04:20:16.681Z,96164.16
2022-08-30T04:22:44.382Z,96210.53
2022-08-30T04:25:15.865Z,96173.88
2022-08-30T04:27:45.888Z,96133.81
2022-08-30T04:30:15.309Z,96208.34
2022-08-30T04:32:43.962Z,96208.72
2022-08-30T04:35:12.775Z,96222.88
2022-08-30T04:37:40.487Z,96082.41
2022-08-30T04:40:09.964Z,96193.03
2022-08-30T04:42:38.258Z,96069.28
2022-08-30T04:45:11.299Z,96222.69
2022-08-30T04:47:39.809Z,96130.75
2022-08-30T04:50:10.581Z,96158.66
2022-08-30T04:52:38.546Z,96232.53
2022-08-30T04:55:07.577Z,96235.97
2022-08-30T04:57:35.709Z,96189.69
2022-08-30T05:00:05.076Z,96085.72
2022-08-30T05:02:34.188Z,96210.13
2022-08-30T05:05:19.828Z,96140.06
2022-08-30T05:07:47.760Z,96243.84
2022-08-30T05:10:15.514Z,96253.56
2022-08-30T05:12:43.875Z,96259.66
2022-08-30T05:15:13.493Z,96258.69
2022-08-30T05:17:42.726Z,96256.91
2022-08-30T05:20:12.954Z,96264.16
2022-08-30T05:22:42.219Z,96173.88
2022-08-30T05:25:10.306Z,96256.72
2022-08-30T05:27:42.490Z,96202.97
2022-08-30T05:30:11.994Z,96182.44
2022-08-30T05:32:39.699Z,96177.50
2022-08-30T05:35:10.109Z,96263.19
2022-08-30T05:37:38.494Z,96274.47
2022-08-30T05:40:11.003Z,96238.06
2022-08-30T05:42:41.357Z,96243.88
2022-08-30T05:45:10.672Z,96253.69
2022-08-30T05:47:39.099Z,96248.06
2022-08-30T05:50:10.124Z,96260.28
2022-08-30T05:52:38.638Z,96247.41
2022-08-30T05:55:08.955Z,96240.56
2022-08-30T05:57:38.476Z,96251.91
2022-08-30T06:00:11.026Z,96256.94
2022-08-30T06:02:42.057Z,96250.16
2022-08-30T06:05:14.349Z,96209.22
2022-08-30T06:07:43.350Z,96246.00
2022-08-30T06:10:12.279Z,96250.47
2022-08-30T06:12:40.026Z,96242.34
2022-08-30T06:15:09.009Z,96180.38
2022-08-30T06:17:36.670Z,96236.59
2022-08-30T06:20:05.216Z,96260.22
2022-08-30T06:22:34.392Z,96270.09
2022-08-30T06:25:02.107Z,96282.97
2022-08-30T06:27:31.405Z,96267.78
2022-08-30T06:29:59.085Z,96246.47
2022-08-30T06:32:26.772Z,96262.19
2022-08-30T06:34:54.455Z,96163.50
2022-08-30T06:37:29.466Z,96179.53
2022-08-30T06:40:00.250Z,96258.28
2022-08-30T06:42:31.892Z,96238.84
2022-08-30T06:45:00.033Z,96129.41
2022-08-30T06:47:29.132Z,96125.97
2022-08-30T06:49:59.102Z,96233.84
2022-08-30T06:52:27.192Z,96252.03
2022-08-30T06:54:59.180Z,96140.13
2022-08-30T06:57:27.457Z,96258.78
2022-08-30T06:59:57.308Z,96260.03
2022-08-30T07:02:25.990Z,96164.25
2022-08-30T07:04:53.758Z,96174.09
2022-08-30T07:07:21.708Z,96253.06
2022-08-30T07:09:49.453Z,96215.88
2022-08-30T07:12:18.589Z,96233.28
2022-08-30T07:14:46.376Z,96190.50
2022-08-30T07:17:34.683Z,96268.59
2022-08-30T07:20:03.563Z,96232.50
2022-08-30T07:22:31.619Z,96136.75
2022-08-30T07:24:59.317Z,96113.41
2022-08-30T07:27:28.444Z,96200.38
2022-08-30T07:29:58.428Z,96272.38
2022-08-30T07:32:26.379Z,96262.28
2022-08-30T07:34:56.389Z,96261.16
2022-08-30T07:37:24.131Z,96237.09
2022-08-30T07:39:52.101Z,96249.53
2022-08-30T07:42:20.134Z,96165.75
2022-08-30T07:44:50.490Z,96174.41
2022-08-30T07:47:20.803Z,96250.91
2022-08-30T07:49:48.600Z,96245.91
2022-08-30T07:52:16.333Z,96259.84
2022-08-30T07:54:44.021Z,96252.56
2022-08-30T07:57:12.417Z,96167.88
2022-08-30T07:59:45.958Z,96150.50
2022-08-30T08:02:15.126Z,96261.78
2022-08-30T08:04:45.317Z,96256.06
2022-08-30T08:07:13.069Z,96270.72
2022-08-30T08:09:40.917Z,96168.88
2022-08-30T08:12:09.336Z,96260.31
2022-08-30T08:14:37.444Z,96256.16
2022-08-30T08:17:05.617Z,96257.97
2022-08-30T08:19:34.770Z,96233.31
2022-08-30T08:22:20.685Z,96170.41
2022-08-30T08:24:49.274Z,96251.63
2022-08-30T08:27:17.639Z,96256.84
2022-08-30T08:29:45.430Z,96210.59
2022-08-30T08:32:13.123Z,96253.66
2022-08-30T08:34:42.334Z,96177.59
2022-08-30T08:37:10.006Z,96281.13
2022-08-30T08:39:37.784Z,96150.72
2022-08-30T08:42:14.814Z,96259.47
2022-08-30T08:44:54.783Z,96255.47
2022-08-30T08:47:28.521Z,96273.53
2022-08-30T08:50:04.052Z,96259.00
2022-08-30T08:53:01.202Z,96222.66
2022-08-30T08:55:30.249Z,96271.16
2022-08-30T08:57:58.533Z,96239.22
2022-08-30T09:00:26.919Z,96255.44
2022-08-30T09:02:58.886Z,96252.44
2022-08-30T09:05:32.408Z,96192.19
2022-08-30T09:08:05.540Z,96248.38
2022-08-30T09:10:49.931Z,96170.50
2022-08-30T09:13:19.031Z,96130.06
2022-08-30T09:15:51.099Z,96203.59
2022-08-30T09:18:45.643Z,96230.66
2022-08-30T09:21:15.758Z,96186.19
2022-08-30T09:23:50.682Z,96256.94
2022-08-30T09:26:30.868Z,96248.88
2022-08-30T09:28:59.972Z,96235.34
2022-08-30T09:31:30.862Z,96207.72
2022-08-30T09:34:03.253Z,96247.50
2022-08-30T09:36:35.532Z,96149.31
2022-08-30T09:39:07.218Z,96234.34
2022-08-30T09:41:42.491Z,96244.84
2022-08-30T09:44:15.170Z,96238.16
2022-08-30T09:46:49.705Z,96230.00
2022-08-30T09:49:34.689Z,96233.03
2022-08-30T09:52:17.924Z,96227.56
2022-08-30T09:55:01.334Z,96226.50
2022-08-30T09:57:44.934Z,96196.19
2022-08-30T10:00:18.005Z,96194.44
2022-08-30T10:02:58.277Z,96222.94
2022-08-30T10:05:30.878Z,96208.56
2022-08-30T10:08:12.576Z,96217.78
2022-08-30T10:10:49.681Z,96160.53
2022-08-30T10:13:39.192Z,96213.84
2022-08-30T10:16:15.914Z,96196.06
2022-08-30T10:18:52.952Z,96207.25
2022-08-30T10:21:28.195Z,96204.31
2022-08-30T10:24:02.017Z,96209.34
2022-08-30T10:26:34.011Z,96129.75
2022-08-30T10:29:07.743Z,96192.31
2022-08-30T10:31:43.539Z,96185.09
2022-08-30T10:34:17.437Z,96194.06
2022-08-30T10:36:58.323Z,96170.06
2022-08-30T10:39:32.249Z,96116.81
2022-08-30T10:42:06.491Z,96136.31
2022-08-30T10:44:41.202Z,96180.44
2022-08-30T10:47:23.360Z,96184.75
2022-08-30T10:49:56.727Z,96179.53
2022-08-30T10:52:34.142Z,96185.44
2022-08-30T10:55:08.506Z,96176.50
2022-08-30T10:57:38.485Z,96156.41
2022-08-30T11:00:17.386Z,96176.28
2022-08-30T11:03:24.524Z,96180.34
2022-08-30T11:06:09.810Z,96180.56
2022-08-30T11:08:57.816Z,96152.84
2022-08-30T11:11:40.764Z,96158.25
2022-08-30T11:14:12.180Z,96168.44
2022-08-30T11:16:43.221Z,96117.28
2022-08-30T11:19:18.954Z,96033.91
2022-08-30T11:21:49.645Z,96160.19
2022-08-30T11:24:21.818Z,96162.50
2022-08-30T11:27:11.153Z,96161.31
2022-08-30T11:29:43.938Z,96126.81
2022-08-30T11:32:25.430Z,96145.38
2022-08-30T11:34:59.535Z,96146.09
2022-08-30T11:37:46.649Z,96152.59
2022-08-30T11:40:49.131Z,96161.00
2022-08-30T11:43:55.517Z,96154.56
2022-08-30T11:46:38.937Z,96158.06
2022-08-30T11:49:46.285Z,96155.25
2022-08-30T11:52:33.072Z,96165.00
2022-08-30T11:55:19.108Z,96141.00
2022-08-30T11:57:53.799Z,96160.31
2022-08-30T12:00:34.316Z,96164.38
2022-08-30T12:03:05.246Z,96131.84
2022-08-30T12:05:57.368Z,96155.03
2022-08-30T12:08:48.120Z,96157.03
2022-08-30T12:12:03.582Z,96150.22
2022-08-30T12:14:48.693Z,96148.03
2022-08-30T12:17:41.144Z,96147.06
2022-08-30T12:20:18.404Z,96131.06
2022-08-30T12:22:46.422Z,96129.22
2022-08-30T12:25:21.455Z,96146.97
2022-08-30T12:27:49.669Z,96125.69
2022-08-30T12:30:27.280Z,96139.63
2022-08-30T12:32:58.639Z,96043.16
2022-08-30T12:35:29.057Z,96126.69
2022-08-30T12:38:00.530Z,96119.84
2022-08-30T12:40:31.024Z,96091.13
2022-08-30T12:43:01.661Z,96133.16
2022-08-30T12:45:33.481Z,96065.88
2022-08-30T12:48:08.668Z,96131.25
2022-08-30T12:50:44.531Z,96130.88
2022-08-30T12:53:15.035Z,96127.81
2022-08-30T12:55:52.940Z,96110.63
2022-08-30T12:58:36.070Z,96128.50
2022-08-30T13:01:25.349Z,96115.03
2022-08-30T13:04:03.734Z,96123.19
2022-08-30T13:06:43.737Z,96117.03
2022-08-30T13:09:23.904Z,96087.28
2022-08-30T13:11:52.342Z,96113.72
2022-08-30T13:14:36.649Z,95996.22
2022-08-30T13:17:10.157Z,96099.13
2022-08-30T13:19:41.648Z,96051.63
2022-08-30T13:22:25.875Z,96102.03
2022-08-30T13:24:55.495Z,95972.72
2022-08-30T13:27:23.688Z,96085.53
2022-08-30T13:29:51.818Z,96088.63
2022-08-30T13:32:20.437Z,96090.56
2022-08-30T13:34:49.725Z,96084.78
2022-08-30T13:40:10.793Z,96083.34
2022-08-30T13:42:40.400Z,96074.84
2022-08-30T13:45:40.951Z,96044.56
2022-08-30T13:47:56.683Z,96072.53
2022-08-30T13:50:25.688Z,96073.66
2022-08-30T13:52:55.198Z,96064.00
2022-08-30T13:55:22.910Z,96051.44
2022-08-30T13:57:55.201Z,96062.44
2022-08-30T14:00:25.625Z,96068.66
2022-08-30T14:02:56.144Z,96041.56
2022-08-30T14:06:04.653Z,96067.69
2022-08-30T14:11:11.299Z,96062.44
2022-08-30T14:16:31.847Z,96053.00
2022-08-30T14:19:01.117Z,96013.38
2022-08-30T14:21:30.469Z,96051.03
2022-08-30T14:23:59.744Z,96003.34
2022-08-30T14:26:33.262Z,96054.59
2022-08-30T14:29:02.089Z,96044.91
2022-08-30T14:31:32.926Z,96056.25
2022-08-30T14:34:01.768Z,96050.13
2022-08-30T14:36:33.164Z,96028.13
2022-08-30T14:39:01.114Z,96028.25
2022-08-30T14:41:28.843Z,96044.91
2022-08-30T14:43:56.895Z,96014.59
2022-08-30T14:46:26.727Z,96025.84
2022-08-30T14:48:55.325Z,96015.72
2022-08-30T14:51:24.434Z,96029.69
2022-08-30T14:53:54.715Z,96025.03
2022-08-30T14:56:23.981Z,96025.03
2022-08-30T14:59:00.149Z,96017.72
2022-08-30T15:01:29.236Z,96013.50
2022-08-30T15:03:57.775Z,96011.19
2022-08-30T15:06:26.613Z,96010.75
2022-08-30T15:08:56.245Z,96016.16
2022-08-30T15:11:26.281Z,96001.56
2022-08-30T15:13:54.849Z,95949.44
2022-08-30T15:16:25.050Z,95991.47
2022-08-30T15:18:53.416Z,95984.88
2022-08-30T15:21:26.313Z,95987.31
2022-08-30T15:23:55.633Z,95928.13
2022-08-30T15:26:23.278Z,95968.38
2022-08-30T15:28:52.296Z,95985.13
2022-08-30T15:31:21.647Z,95976.59
2022-08-30T15:33:50.598Z,95980.84
2022-08-30T15:36:18.416Z,95868.69
2022-08-30T15:38:46.167Z,95870.47
2022-08-30T15:41:16.167Z,95968.31
2022-08-30T15:43:43.815Z,95981.09
2022-08-30T15:46:19.198Z,95979.16
2022-08-30T15:48:47.809Z,95983.34
2022-08-30T15:51:17.470Z,95927.88
2022-08-30T15:53:45.903Z,95960.16
2022-08-30T15:56:16.479Z,95979.59
2022-08-30T15:58:44.958Z,95976.25
2022-08-30T16:01:14.719Z,95976.53
2022-08-30T16:06:15.348Z,95965.66
2022-08-30T16:08:44.475Z,95974.84
2022-08-30T16:11:18.727Z,95964.41
2022-08-30T16:13:50.575Z,95970.16
2022-08-30T16:16:20.683Z,95960.78
2022-08-30T16:18:54.123Z,95892.88
2022-08-30T16:21:24.506Z,95952.75
2022-08-30T16:23:54.640Z,95833.47
2022-08-30T16:26:24.752Z,95950.28
2022-08-30T16:28:53.173Z,95952.94
2022-08-30T16:31:22.802Z,95931.56
2022-08-30T16:33:52.834Z,95899.34
2022-08-30T16:36:21.840Z,95948.69
2022-08-30T16:38:50.493Z,95935.91
2022-08-30T16:41:24.253Z,95936.66
2022-08-30T16:43:53.255Z,95933.47
2022-08-30T16:46:23.447Z,95947.00
2022-08-30T16:48:57.127Z,95946.19
2022-08-30T16:51:27.290Z,95941.84
2022-08-30T16:53:56.425Z,95952.50
2022-08-30T16:56:27.730Z,95944.00
2022-08-30T16:59:01.767Z,95947.13
2022-08-30T17:01:32.066Z,95949.31
2022-08-30T17:04:00.494Z,95888.97
2022-08-30T17:06:28.700Z,95945.28
2022-08-30T17:08:57.021Z,95924.22
2022-08-30T17:11:26.606Z,95954.03
2022-08-30T17:13:54.876Z,95943.94
2022-08-30T17:16:28.027Z,95951.19
2022-08-30T17:18:59.887Z,95949.59
2022-08-30T17:21:29.416Z,95955.72
2022-08-30T17:24:01.709Z,95955.25
2022-08-30T17:26:32.767Z,95949.84
2022-08-30T17:29:01.615Z,95948.66
2022-08-30T17:31:30.672Z,95958.53
2022-08-30T17:34:03.509Z,95953.03
2022-08-30T17:36:32.436Z,95947.41
2022-08-30T17:39:00.152Z,95943.47
2022-08-30T17:41:28.438Z,95912.16
2022-08-30T17:43:57.458Z,95952.47
2022-08-30T17:46:25.381Z,95936.75
2022-08-30T17:48:56.521Z,95892.19
2022-08-30T17:51:29.273Z,95962.66
2022-08-30T17:53:57.043Z,95947.63
2022-08-30T17:56:30.418Z,95972.16
2022-08-30T17:59:04.888Z,95963.66
2022-08-30T18:01:32.835Z,95894.22
2022-08-30T18:04:02.012Z,95957.94
2022-08-30T18:06:34.075Z,95892.59
2022-08-30T18:09:02.019Z,95982.53
2022-08-30T18:11:29.775Z,95986.91
2022-08-30T18:13:57.443Z,95992.13
2022-08-30T18:16:27.020Z,95993.44
2022-08-30T18:18:57.241Z,95994.03
2022-08-30T18:21:28.443Z,95991.59
2022-08-30T18:23:56.646Z,96003.09
2022-08-30T18:26:24.986Z,95998.59
2022-08-30T18:28:53.038Z,96019.63
2022-08-30T18:31:20.959Z,96016.41
2022-08-30T18:33:49.955Z,95994.84
2022-08-30T18:36:17.862Z,96003.69
2022-08-30T18:38:45.666Z,95935.44
2022-08-30T18:41:15.219Z,96005.66
2022-08-30T18:43:43.370Z,96008.16
2022-08-30T18:46:15.178Z,96009.63
2022-08-30T18:48:46.154Z,96014.34
2022-08-30T18:51:18.254Z,95958.69
2022-08-30T18:53:47.171Z,96013.41
2022-08-30T18:56:16.554Z,95889.75
2022-08-30T18:58:44.834Z,95989.25
2022-08-30T19:01:12.989Z,95991.81
2022-08-30T19:03:41.936Z,96020.47
2022-08-30T19:06:12.278Z,96015.88
2022-08-30T19:08:42.029Z,96014.13
2022-08-30T19:11:14.531Z,96015.69
2022-08-30T19:13:42.616Z,96011.78
2022-08-30T19:16:12.036Z,96017.50
2022-08-30T19:18:40.918Z,95973.75
2022-08-30T19:21:13.460Z,96024.66
2022-08-30T19:23:42.976Z,96019.88
2022-08-30T19:26:10.788Z,96014.09
2022-08-30T19:28:38.898Z,96014.75
2022-08-30T19:31:07.218Z,96020.00
2022-08-30T19:33:35.972Z,96027.59
2022-08-30T19:36:06.618Z,96026.81
2022-08-30T19:38:37.847Z,96028.59
2022-08-30T19:41:07.664Z,96038.19
2022-08-30T19:43:35.999Z,96028.06
2022-08-30T19:46:04.185Z,96036.31
2022-08-30T19:48:34.262Z,96040.53
2022-08-30T19:51:07.920Z,96040.00
2022-08-30T19:53:35.768Z,96032.16
2022-08-30T19:56:04.099Z,96043.56
2022-08-30T19:58:33.428Z,95972.88
2022-08-30T20:01:10.609Z,96033.75
2022-08-30T20:03:48.162Z,96041.00
2022-08-30T20:06:21.058Z,96034.88
2022-08-30T20:08:49.086Z,96010.22
2022-08-30T20:11:19.988Z,96039.44
2022-08-30T20:13:49.654Z,96029.06
2022-08-30T20:16:18.300Z,96015.75
2022-08-30T20:18:48.827Z,96020.00
2022-08-30T20:21:17.340Z,96021.66
2022-08-30T20:23:45.197Z,96021.22
2022-08-30T20:26:14.007Z,96031.34
2022-08-30T20:28:43.302Z,96016.75
2022-08-30T20:31:13.045Z,96026.75
2022-08-30T20:33:41.361Z,96022.72
2022-08-30T20:36:11.355Z,96014.63
2022-08-30T20:38:39.660Z,96006.66
2022-08-30T20:41:11.150Z,96013.59
2022-08-30T20:43:39.862Z,95972.75
2022-08-30T20:46:10.308Z,96020.25
2022-08-30T20:48:40.123Z,96027.03
2022-08-30T20:51:09.550Z,96023.00
2022-08-30T20:53:37.295Z,96022.09
2022-08-30T20:56:05.837Z,96026.22
2022-08-30T20:58:33.493Z,96031.09
2022-08-30T21:01:01.484Z,96011.38
2022-08-30T21:03:29.798Z,96028.75
2022-08-30T21:06:02.043Z,96014.81
2022-08-30T21:08:29.899Z,96014.88
2022-08-30T21:10:58.128Z,96031.50
2022-08-30T21:13:27.620Z,96014.94
2022-08-30T21:16:00.256Z,96011.69
2022-08-30T21:18:32.902Z,96010.22
2022-08-30T21:21:10.174Z,96023.63
2022-08-30T21:23:38.178Z,96016.91
2022-08-30T21:26:06.978Z,96028.22
2022-08-30T21:28:34.768Z,96024.13
2022-08-30T21:31:08.141Z,96010.53
2022-08-30T21:33:36.133Z,95983.84
2022-08-30T21:36:23.734Z,96013.31
2022-08-30T21:38:52.826Z,95998.34
2022-08-30T21:41:21.979Z,96008.81
2022-08-30T21:43:50.110Z,96019.13
2022-08-30T21:46:18.044Z,96014.69
2022-08-30T21:48:46.519Z,95963.78
2022-08-30T21:51:15.523Z,96026.28
2022-08-30T21:53:43.206Z,96024.59
2022-08-30T21:56:13.259Z,96026.69
2022-08-30T21:58:45.060Z,96030.69
2022-08-30T22:01:17.399Z,96033.56
2022-08-30T22:03:45.757Z,96039.13
2022-08-30T22:06:16.187Z,96037.59
2022-08-30T22:08:46.121Z,96014.22
2022-08-30T22:11:16.416Z,96035.19
2022-08-30T22:13:46.430Z,96031.06
2022-08-30T22:16:16.444Z,96008.13
2022-08-30T22:18:44.464Z,96034.84
2022-08-30T22:21:15.150Z,96019.88
2022-08-30T22:23:44.999Z,96023.78
2022-08-30T22:26:15.224Z,96016.34
2022-08-30T22:28:42.962Z,96021.47
2022-08-30T22:31:13.300Z,96022.13
2022-08-30T22:33:41.733Z,96031.09
2022-08-30T22:36:12.529Z,96030.13
2022-08-30T22:38:40.888Z,96038.19
2022-08-30T22:41:12.356Z,96034.28
2022-08-30T22:43:40.367Z,96038.69
2022-08-30T22:46:08.768Z,96034.59
2022-08-30T22:48:36.692Z,96033.03
2022-08-30T22:51:04.457Z,96035.06
2022-08-30T22:53:32.249Z,96032.25
2022-08-30T22:56:00.487Z,96033.34
2022-08-30T22:58:30.680Z,96030.84
2022-08-30T23:00:58.379Z,96028.19
2022-08-30T23:03:28.530Z,96030.09
2022-08-30T23:05:56.406Z,96023.97
2022-08-30T23:08:24.114Z,96030.69
2022-08-30T23:10:51.765Z,96002.81
2022-08-30T23:13:19.618Z,95988.25
2022-08-30T23:15:48.776Z,96032.50
2022-08-30T23:18:16.434Z,96027.38
2022-08-30T23:20:45.178Z,96024.25
2022-08-30T23:23:30.331Z,96018.00
2022-08-30T23:26:18.071Z,96023.47
2022-08-30T23:29:03.269Z,96015.00
2022-08-30T23:31:49.865Z,96004.03
2022-08-30T23:34:35.044Z,96014.03
2022-08-30T23:37:20.126Z,96016.09
2022-08-30T23:40:05.432Z,96004.97
2022-08-30T23:42:50.689Z,96010.00
2022-08-30T23:45:36.143Z,96002.47
2022-08-30T23:48:22.919Z,95996.34
2022-08-30T23:51:08.109Z,95995.28
2022-08-30T23:53:53.505Z,96006.84
2022-08-30T23:56:38.741Z,96009.41
2022-08-30T23:59:24.044Z,95995.63
